createdAt,value
2019-02-24T00:01:48.694Z,-4.97
2019-02-24T00:04:17.484Z,-5.03
2019-02-24T00:06:46.250Z,-5.07
2019-02-24T00:09:15.087Z,-5.04
2019-02-24T00:11:43.918Z,-5.09
2019-02-24T00:14:12.753Z,-5.05
2019-02-24T00:16:41.608Z,-5.13
2019-02-24T00:19:10.373Z,-5.14
2019-02-24T00:21:39.146Z,-5.19
2019-02-24T00:24:07.951Z,-5.24
2019-02-24T00:26:36.731Z,-5.27
2019-02-24T00:29:05.505Z,-5.24
2019-02-24T00:31:34.259Z,-5.22
2019-02-24T00:34:03.031Z,-5.24
2019-02-24T00:36:31.791Z,-5.16
2019-02-24T00:39:00.569Z,-5.18
2019-02-24T00:41:29.324Z,-5.19
2019-02-24T00:43:58.105Z,-5.21
2019-02-24T00:46:26.878Z,-5.22
2019-02-24T00:48:55.655Z,-5.24
2019-02-24T00:51:24.507Z,-5.23
2019-02-24T00:53:53.345Z,-5.26
2019-02-24T00:56:22.118Z,-5.33
2019-02-24T00:58:50.889Z,-5.26
2019-02-24T01:01:19.659Z,-5.24
2019-02-24T01:03:48.421Z,-5.19
2019-02-24T01:06:17.190Z,-5.20
2019-02-24T01:08:45.968Z,-5.20
2019-02-24T01:11:14.747Z,-5.23
2019-02-24T01:13:43.529Z,-5.21
2019-02-24T01:16:12.279Z,-5.20
2019-02-24T01:18:41.054Z,-5.23
2019-02-24T01:21:09.830Z,-5.21
2019-02-24T01:23:38.588Z,-5.26
2019-02-24T01:26:07.363Z,-5.27
2019-02-24T01:28:36.141Z,-5.29
2019-02-24T01:31:04.915Z,-5.35
2019-02-24T01:33:33.681Z,-5.42
2019-02-24T01:36:02.748Z,-5.40
2019-02-24T01:38:31.554Z,-5.43
2019-02-24T01:41:00.408Z,-5.41
2019-02-24T01:43:29.173Z,-5.46
2019-02-24T01:45:57.970Z,-5.46
2019-02-24T01:48:26.742Z,-5.50
2019-02-24T01:50:55.546Z,-5.48
2019-02-24T01:53:24.304Z,-5.54
2019-02-24T01:55:53.073Z,-5.56
2019-02-24T01:58:21.851Z,-5.60
2019-02-24T02:00:50.607Z,-5.61
2019-02-24T02:03:19.463Z,-5.65
2019-02-24T02:05:48.311Z,-5.68
2019-02-24T02:08:17.156Z,-5.82
2019-02-24T02:10:45.923Z,-5.88
2019-02-24T02:13:14.695Z,-5.86
2019-02-24T02:15:43.487Z,-5.77
2019-02-24T02:18:12.272Z,-5.76
2019-02-24T02:20:41.042Z,-5.83
2019-02-24T02:23:09.852Z,-5.89
2019-02-24T02:25:38.619Z,-5.93
2019-02-24T02:28:07.468Z,-5.98
2019-02-24T02:30:36.245Z,-6.05
2019-02-24T02:33:05.003Z,-6.06
2019-02-24T02:35:33.863Z,-6.13
2019-02-24T02:38:02.714Z,-6.22
2019-02-24T02:40:31.570Z,-6.26
2019-02-24T02:43:00.338Z,-6.29
2019-02-24T02:45:29.176Z,-6.40
2019-02-24T02:47:57.944Z,-6.42
2019-02-24T02:50:26.958Z,-6.40
2019-02-24T02:52:55.739Z,-6.44
2019-02-24T02:55:24.584Z,-6.40
2019-02-24T02:57:53.372Z,-6.39
2019-02-24T03:00:32.630Z,-6.39
2019-02-24T03:03:01.392Z,-6.40
2019-02-24T03:05:30.164Z,-6.50
2019-02-24T03:08:06.613Z,-6.60
2019-02-24T03:10:35.381Z,-6.63
2019-02-24T03:13:04.197Z,-6.67
2019-02-24T03:15:33.013Z,-6.58
2019-02-24T03:18:01.786Z,-6.50
2019-02-24T03:20:30.632Z,-6.49
2019-02-24T03:22:59.396Z,-6.48
2019-02-24T03:25:28.187Z,-6.58
2019-02-24T03:27:57.007Z,-6.67
2019-02-24T03:30:25.781Z,-6.73
2019-02-24T03:32:54.615Z,-6.84
2019-02-24T03:35:23.381Z,-6.88
2019-02-24T03:37:52.142Z,-6.94
2019-02-24T03:40:20.979Z,-6.96
2019-02-24T03:42:49.732Z,-6.92
2019-02-24T03:45:18.482Z,-6.95
2019-02-24T03:47:47.258Z,-6.98
2019-02-24T03:50:16.144Z,-6.98
2019-02-24T03:52:44.920Z,-6.96
2019-02-24T03:55:13.768Z,-6.97
2019-02-24T03:57:42.544Z,-6.96
2019-02-24T04:00:11.396Z,-6.94
2019-02-24T04:02:40.165Z,-6.90
2019-02-24T04:05:09.015Z,-6.88
2019-02-24T04:07:37.783Z,-6.87
2019-02-24T04:10:07.359Z,-6.74
2019-02-24T04:12:36.122Z,-6.70
2019-02-24T04:15:06.125Z,-6.66
2019-02-24T04:17:34.886Z,-6.65
2019-02-24T04:20:03.961Z,-6.60
2019-02-24T04:22:32.737Z,-6.76
2019-02-24T04:25:01.510Z,-6.75
2019-02-24T04:27:30.341Z,-6.59
2019-02-24T04:29:59.100Z,-6.47
2019-02-24T04:32:27.879Z,-6.40
2019-02-24T04:34:56.662Z,-6.29
2019-02-24T04:37:25.422Z,-6.40
2019-02-24T04:39:54.216Z,-6.44
2019-02-24T04:42:22.994Z,-6.49
2019-02-24T04:44:51.773Z,-6.59
2019-02-24T04:47:20.620Z,-6.69
2019-02-24T04:49:49.385Z,-6.74
2019-02-24T04:52:18.245Z,-6.84
2019-02-24T04:54:47.010Z,-6.90
2019-02-24T04:57:16.035Z,-6.76
2019-02-24T04:59:44.883Z,-6.78
2019-02-24T05:02:13.642Z,-6.76
2019-02-24T05:04:42.483Z,-6.82
2019-02-24T05:07:11.269Z,-6.70
2019-02-24T05:09:40.061Z,-6.59
2019-02-24T05:12:08.831Z,-6.46
2019-02-24T05:14:37.604Z,-6.29
2019-02-24T05:17:06.451Z,-6.13
2019-02-24T05:19:35.303Z,-6.10
2019-02-24T05:22:04.084Z,-6.03
2019-02-24T05:24:32.861Z,-6.07
2019-02-24T05:27:01.638Z,-6.16
2019-02-24T05:29:30.408Z,-6.15
2019-02-24T05:31:59.165Z,-6.11
2019-02-24T05:34:27.948Z,-5.96
2019-02-24T05:36:56.735Z,-5.80
2019-02-24T05:39:25.512Z,-5.67
2019-02-24T05:41:54.281Z,-5.49
2019-02-24T05:44:23.134Z,-5.35
2019-02-24T05:46:51.906Z,-5.24
2019-02-24T05:49:20.746Z,-5.13
2019-02-24T05:51:49.516Z,-5.03
2019-02-24T05:54:18.289Z,-5.14
2019-02-24T05:56:47.081Z,-5.03
2019-02-24T05:59:15.867Z,-4.81
2019-02-24T06:01:44.658Z,-4.79
2019-02-24T06:04:13.597Z,-4.73
2019-02-24T06:06:42.357Z,-4.52
2019-02-24T06:09:11.151Z,-4.39
2019-02-24T06:11:39.931Z,-4.29
2019-02-24T06:14:08.727Z,-4.16
2019-02-24T06:16:37.508Z,-3.95
2019-02-24T06:19:06.272Z,-3.88
2019-02-24T06:21:35.146Z,-3.91
2019-02-24T06:24:03.994Z,-3.87
2019-02-24T06:26:32.750Z,-3.58
2019-02-24T06:29:01.609Z,-3.60
2019-02-24T06:31:30.458Z,-3.60
2019-02-24T06:33:59.314Z,-3.48
2019-02-24T06:36:28.082Z,-3.21
2019-02-24T06:38:58.495Z,-2.91
2019-02-24T06:41:27.289Z,-2.83
2019-02-24T06:43:56.125Z,-3.01
2019-02-24T06:46:24.912Z,-2.74
2019-02-24T06:48:53.671Z,-2.46
2019-02-24T06:51:22.517Z,-2.20
2019-02-24T06:53:51.313Z,-1.91
2019-02-24T06:56:20.074Z,-1.62
2019-02-24T06:58:48.904Z,-1.54
2019-02-24T07:01:17.772Z,-1.33
2019-02-24T07:03:46.623Z,-1.04
2019-02-24T07:06:15.391Z,-0.94
2019-02-24T07:08:44.153Z,-0.87
2019-02-24T07:11:12.927Z,-1.05
2019-02-24T07:13:41.693Z,-0.81
2019-02-24T07:16:10.575Z,-0.75
2019-02-24T07:18:39.353Z,-0.57
2019-02-24T07:21:08.116Z,-0.61
2019-02-24T07:23:36.971Z,-0.75
2019-02-24T07:26:05.826Z,-0.76
2019-02-24T07:28:34.656Z,-0.48
2019-02-24T07:31:03.455Z,-0.33
2019-02-24T07:33:32.321Z,-0.49
2019-02-24T07:36:01.186Z,-0.26
2019-02-24T07:38:29.950Z,-0.28
2019-02-24T07:40:58.747Z,-0.39
2019-02-24T07:43:27.518Z,-0.41
2019-02-24T07:45:56.308Z,-0.43
2019-02-24T07:48:25.100Z,-0.48
2019-02-24T07:50:53.873Z,-0.36
2019-02-24T07:53:22.665Z,-0.06
2019-02-24T07:55:51.417Z,0.08
2019-02-24T07:58:20.199Z,0.08
2019-02-24T08:00:48.967Z,0.62
2019-02-24T08:03:17.823Z,0.60
2019-02-24T08:05:46.580Z,0.26
2019-02-24T08:08:16.627Z,0.30
2019-02-24T08:10:45.561Z,-0.06
2019-02-24T08:13:14.400Z,-0.28
2019-02-24T08:15:43.145Z,-0.05
2019-02-24T08:18:12.000Z,-0.16
2019-02-24T08:20:40.843Z,-0.13
2019-02-24T08:23:10.991Z,0.12
2019-02-24T08:25:39.873Z,0.09
2019-02-24T08:28:08.732Z,0.09
2019-02-24T08:30:41.698Z,-0.14
2019-02-24T08:33:08.168Z,0.03
2019-02-24T08:35:36.957Z,0.30
2019-02-24T08:38:05.786Z,0.58
2019-02-24T08:40:34.636Z,0.71
2019-02-24T08:43:03.475Z,1.08
2019-02-24T08:45:32.316Z,1.64
2019-02-24T08:48:01.307Z,1.66
2019-02-24T08:50:30.043Z,1.44
2019-02-24T08:52:58.822Z,1.67
2019-02-24T08:55:27.670Z,2.43
2019-02-24T08:57:56.502Z,2.63
2019-02-24T09:00:25.353Z,3.27
2019-02-24T09:02:54.128Z,2.98
2019-02-24T09:05:22.970Z,2.82
2019-02-24T09:07:51.733Z,3.24
2019-02-24T09:10:20.579Z,3.19
2019-02-24T09:12:49.348Z,3.41
2019-02-24T09:15:18.121Z,3.97
2019-02-24T09:17:46.976Z,4.27
2019-02-24T09:20:15.903Z,3.95
2019-02-24T09:22:45.059Z,4.48
2019-02-24T09:25:13.944Z,4.94
2019-02-24T09:27:42.728Z,5.25
2019-02-24T09:30:13.387Z,5.29
2019-02-24T09:32:42.138Z,5.45
2019-02-24T09:35:11.015Z,5.23
2019-02-24T09:37:40.460Z,5.52
2019-02-24T09:40:10.965Z,6.19
2019-02-24T09:42:40.321Z,6.00
2019-02-24T09:45:10.766Z,5.55
2019-02-24T09:47:46.389Z,4.89
2019-02-24T09:50:10.543Z,5.29
2019-02-24T09:52:39.398Z,5.20
2019-02-24T09:55:09.231Z,5.68
2019-02-24T09:57:38.687Z,4.92
2019-02-24T10:00:10.645Z,5.40
2019-02-24T10:02:39.483Z,4.33
2019-02-24T10:05:08.398Z,4.86
2019-02-24T10:07:37.191Z,4.50
2019-02-24T10:10:15.309Z,4.13
2019-02-24T10:12:44.072Z,4.40
2019-02-24T10:15:14.588Z,3.86
2019-02-24T10:17:43.483Z,3.56
2019-02-24T10:20:12.940Z,3.31
2019-02-24T10:22:41.784Z,3.53
2019-02-24T10:25:11.222Z,3.05
2019-02-24T10:27:39.987Z,3.28
2019-02-24T10:30:11.418Z,3.39
2019-02-24T10:32:40.270Z,3.51
2019-02-24T10:35:09.055Z,3.31
2019-02-24T10:37:37.909Z,3.30
2019-02-24T10:40:12.602Z,3.56
2019-02-24T10:42:41.457Z,3.47
2019-02-24T10:45:12.801Z,3.14
2019-02-24T10:47:41.679Z,3.41
2019-02-24T10:50:12.627Z,3.22
2019-02-24T10:52:41.467Z,3.34
2019-02-24T10:55:10.448Z,3.31
2019-02-24T10:57:39.356Z,3.17
2019-02-24T11:00:18.615Z,3.22
2019-02-24T11:02:47.393Z,3.23
2019-02-24T11:05:16.763Z,2.85
2019-02-24T11:07:45.555Z,3.03
2019-02-24T11:10:14.396Z,3.22
2019-02-24T11:12:43.266Z,3.61
2019-02-24T11:15:13.101Z,3.70
2019-02-24T11:17:42.060Z,3.83
2019-02-24T11:20:17.768Z,3.39
2019-02-24T11:22:48.714Z,3.56
2019-02-24T11:25:17.564Z,3.77
2019-02-24T11:27:46.443Z,3.90
2019-02-24T11:30:15.987Z,4.07
2019-02-24T11:32:44.761Z,3.99
2019-02-24T11:35:13.999Z,4.00
2019-02-24T11:37:42.871Z,3.65
2019-02-24T11:40:14.106Z,3.34
2019-02-24T11:42:42.887Z,3.14
2019-02-24T11:45:11.740Z,3.00
2019-02-24T11:47:40.578Z,3.56
2019-02-24T11:50:10.925Z,4.15
2019-02-24T11:52:39.692Z,4.83
2019-02-24T11:55:09.859Z,4.50
2019-02-24T11:57:38.624Z,4.24
2019-02-24T12:00:10.445Z,4.17
2019-02-24T12:02:39.219Z,4.28
2019-02-24T12:05:08.687Z,4.77
2019-02-24T12:07:37.550Z,5.18
2019-02-24T12:10:08.981Z,4.63
2019-02-24T12:12:37.741Z,4.18
2019-02-24T12:15:09.911Z,4.31
2019-02-24T12:17:38.659Z,4.47
2019-02-24T12:20:10.306Z,4.69
2019-02-24T12:22:39.173Z,4.27
2019-02-24T12:25:09.859Z,4.17
2019-02-24T12:27:38.622Z,4.01
2019-02-24T12:30:12.345Z,4.05
2019-02-24T12:32:41.183Z,4.47
2019-02-24T12:35:10.006Z,4.39
2019-02-24T12:37:38.856Z,4.66
2019-02-24T12:40:10.623Z,4.24
2019-02-24T12:42:39.393Z,4.88
2019-02-24T12:45:09.531Z,4.52
2019-02-24T12:47:38.464Z,4.93
2019-02-24T12:50:16.101Z,4.64
2019-02-24T12:52:44.860Z,4.45
2019-02-24T12:55:13.624Z,4.40
2019-02-24T12:57:43.378Z,4.84
2019-02-24T13:00:19.237Z,5.33
2019-02-24T13:02:48.015Z,4.95
2019-02-24T13:05:16.853Z,5.36
2019-02-24T13:07:45.618Z,5.90
2019-02-24T13:10:17.387Z,5.35
2019-02-24T13:12:46.160Z,5.92
2019-02-24T13:15:14.922Z,6.17
2019-02-24T13:17:43.767Z,6.31
2019-02-24T13:20:12.913Z,6.25
2019-02-24T13:22:41.864Z,6.14
2019-02-24T13:25:14.506Z,5.78
2019-02-24T13:27:43.369Z,5.20
2019-02-24T13:30:13.408Z,4.48
2019-02-24T13:32:42.276Z,4.24
2019-02-24T13:35:11.120Z,4.84
2019-02-24T13:37:39.918Z,4.64
2019-02-24T13:40:13.401Z,4.78
2019-02-24T13:42:42.244Z,4.97
2019-02-24T13:45:13.914Z,5.10
2019-02-24T13:47:42.756Z,5.17
2019-02-24T13:50:11.629Z,5.42
2019-02-24T13:52:40.506Z,5.19
2019-02-24T13:55:11.439Z,5.25
2019-02-24T13:57:40.218Z,5.41
2019-02-24T14:00:17.049Z,5.77
2019-02-24T14:02:45.910Z,5.91
2019-02-24T14:05:14.691Z,5.54
2019-02-24T14:07:43.534Z,5.60
2019-02-24T14:10:13.572Z,5.87
2019-02-24T14:12:42.415Z,5.53
2019-02-24T14:15:15.481Z,5.41
2019-02-24T14:17:44.330Z,5.47
2019-02-24T14:20:17.322Z,5.37
2019-02-24T14:22:46.159Z,5.28
2019-02-24T14:25:15.911Z,5.45
2019-02-24T14:27:44.757Z,5.50
2019-02-24T14:30:17.216Z,5.44
2019-02-24T14:32:45.982Z,5.08
2019-02-24T14:35:23.113Z,4.72
2019-02-24T14:37:51.965Z,4.68
2019-02-24T14:40:20.711Z,4.95
2019-02-24T14:42:49.489Z,5.07
2019-02-24T14:45:20.044Z,5.18
2019-02-24T14:47:48.892Z,5.20
2019-02-24T14:50:17.950Z,5.44
2019-02-24T14:52:46.813Z,5.50
2019-02-24T14:55:16.171Z,5.00
2019-02-24T14:57:45.032Z,4.66
2019-02-24T15:00:18.607Z,4.12
2019-02-24T15:02:47.664Z,3.99
2019-02-24T15:05:16.963Z,3.44
2019-02-24T15:07:45.893Z,3.32
2019-02-24T15:10:25.973Z,3.21
2019-02-24T15:12:54.887Z,2.91
2019-02-24T15:15:33.119Z,2.65
2019-02-24T15:17:59.122Z,2.51
2019-02-24T15:20:27.904Z,2.46
2019-02-24T15:22:56.666Z,2.38
2019-02-24T15:25:25.519Z,2.23
2019-02-24T15:27:54.378Z,2.03
2019-02-24T15:30:34.631Z,1.92
2019-02-24T15:33:03.494Z,1.78
2019-02-24T15:35:32.333Z,1.68
2019-02-24T15:38:01.224Z,1.51
2019-02-24T15:40:29.972Z,1.42
2019-02-24T15:42:58.839Z,1.23
2019-02-24T15:45:27.633Z,1.23
2019-02-24T15:47:56.498Z,1.06
2019-02-24T15:50:25.345Z,0.98
2019-02-24T15:52:54.115Z,0.88
2019-02-24T15:55:22.968Z,0.88
2019-02-24T15:57:51.843Z,0.79
2019-02-24T16:00:22.398Z,0.79
2019-02-24T16:02:51.229Z,0.80
2019-02-24T16:05:20.093Z,0.80
2019-02-24T16:07:48.994Z,0.69
2019-02-24T16:10:21.502Z,0.61
2019-02-24T16:12:50.371Z,0.66
2019-02-24T16:15:28.854Z,0.67
2019-02-24T16:17:57.708Z,0.70
2019-02-24T16:20:28.644Z,0.59
2019-02-24T16:22:57.516Z,0.48
2019-02-24T16:25:29.263Z,0.43
2019-02-24T16:27:58.024Z,0.36
2019-02-24T16:30:26.870Z,0.35
2019-02-24T16:32:55.715Z,0.36
2019-02-24T16:35:24.504Z,0.32
2019-02-24T16:37:53.296Z,0.34
2019-02-24T16:40:27.045Z,0.40
2019-02-24T16:42:55.918Z,0.46
2019-02-24T16:45:24.796Z,0.29
2019-02-24T16:47:53.687Z,0.28
2019-02-24T16:50:25.682Z,0.17
2019-02-24T16:52:55.145Z,0.18
2019-02-24T16:55:23.974Z,0.13
2019-02-24T16:57:52.770Z,0.17
2019-02-24T17:00:26.315Z,0.22
2019-02-24T17:02:55.122Z,0.18
2019-02-24T17:05:23.982Z,0.10
2019-02-24T17:07:52.830Z,0.12
2019-02-24T17:10:26.099Z,0.14
2019-02-24T17:12:56.616Z,0.12
2019-02-24T17:15:25.474Z,0.05
2019-02-24T17:17:54.257Z,0.03
2019-02-24T17:20:24.264Z,-0.05
2019-02-24T17:22:53.118Z,-0.08
2019-02-24T17:25:21.991Z,-0.08
2019-02-24T17:27:50.777Z,-0.18
2019-02-24T17:30:19.563Z,-0.20
2019-02-24T17:32:48.432Z,-0.25
2019-02-24T17:35:17.300Z,-0.28
2019-02-24T17:37:46.152Z,-0.39
2019-02-24T17:40:19.795Z,-0.45
2019-02-24T17:42:48.796Z,-0.34
2019-02-24T17:45:17.583Z,-0.40
2019-02-24T17:47:46.432Z,-0.42
2019-02-24T17:50:17.240Z,-0.41
2019-02-24T17:52:46.084Z,-0.42
2019-02-24T17:55:16.680Z,-0.46
2019-02-24T17:57:45.536Z,-0.48
2019-02-24T18:00:27.707Z,-0.47
2019-02-24T18:02:56.504Z,-0.57
2019-02-24T18:05:25.396Z,-0.67
2019-02-24T18:07:54.253Z,-0.67
2019-02-24T18:10:23.318Z,-0.67
2019-02-24T18:12:52.208Z,-0.72
2019-02-24T18:15:21.189Z,-0.64
2019-02-24T18:17:50.052Z,-0.70
2019-02-24T18:20:24.616Z,-0.71
2019-02-24T18:22:53.983Z,-0.70
2019-02-24T18:25:22.856Z,-0.70
2019-02-24T18:27:51.727Z,-0.72
2019-02-24T18:30:28.371Z,-0.69
2019-02-24T18:32:57.225Z,-0.72
2019-02-24T18:35:26.113Z,-0.76
2019-02-24T18:37:54.964Z,-0.80
2019-02-24T18:40:23.846Z,-0.82
2019-02-24T18:43:00.122Z,-0.79
2019-02-24T18:45:24.019Z,-0.87
2019-02-24T18:47:52.951Z,-0.87
2019-02-24T18:50:23.324Z,-0.89
2019-02-24T18:52:52.184Z,-0.90
2019-02-24T18:55:20.970Z,-0.91
2019-02-24T18:57:49.628Z,-0.94
2019-02-24T19:00:23.366Z,-1.04
2019-02-24T19:02:52.288Z,-1.03
2019-02-24T19:05:21.163Z,-1.07
2019-02-24T19:07:53.297Z,-1.04
2019-02-24T19:10:23.446Z,-1.06
2019-02-24T19:12:52.287Z,-1.00
2019-02-24T19:15:22.797Z,-0.98
2019-02-24T19:17:51.675Z,-0.97
2019-02-24T19:20:21.659Z,-0.96
2019-02-24T19:22:50.434Z,-0.93
2019-02-24T19:25:19.409Z,-0.91
2019-02-24T19:27:48.282Z,-0.91
2019-02-24T19:30:22.783Z,-0.96
2019-02-24T19:32:51.658Z,-1.07
2019-02-24T19:35:20.517Z,-1.12
2019-02-24T19:37:49.660Z,-1.19
2019-02-24T19:40:19.326Z,-1.24
2019-02-24T19:42:48.273Z,-1.11
2019-02-24T19:45:23.000Z,-1.07
2019-02-24T19:47:51.875Z,-1.09
2019-02-24T19:50:23.035Z,-1.08
2019-02-24T19:52:53.285Z,-1.08
2019-02-24T19:55:23.608Z,-1.05
2019-02-24T19:57:52.516Z,-1.03
2019-02-24T20:00:22.620Z,-1.11
2019-02-24T20:02:51.611Z,-1.14
2019-02-24T20:05:21.077Z,-1.09
2019-02-24T20:07:51.282Z,-1.08
2019-02-24T20:10:22.214Z,-1.08
2019-02-24T20:12:51.093Z,-1.05
2019-02-24T20:15:19.794Z,-1.04
2019-02-24T20:17:48.796Z,-1.02
2019-02-24T20:20:19.411Z,-1.02
2019-02-24T20:22:48.290Z,-1.07
2019-02-24T20:25:19.541Z,-1.13
2019-02-24T20:27:48.477Z,-1.06
2019-02-24T20:30:27.460Z,-1.16
2019-02-24T20:32:57.310Z,-1.05
2019-02-24T20:35:27.627Z,-1.02
2019-02-24T20:37:56.493Z,-0.99
2019-02-24T20:40:25.339Z,-1.03
2019-02-24T20:42:54.146Z,-1.08
2019-02-24T20:45:24.001Z,-1.10
2019-02-24T20:47:54.053Z,-1.15
2019-02-24T20:50:31.548Z,-1.15
2019-02-24T20:53:00.392Z,-1.23
2019-02-24T20:55:29.195Z,-1.27
2019-02-24T20:57:58.066Z,-1.24
2019-02-24T21:00:29.496Z,-1.20
2019-02-24T21:02:58.262Z,-1.17
2019-02-24T21:05:27.128Z,-1.16
2019-02-24T21:07:55.972Z,-1.26
2019-02-24T21:10:24.747Z,-1.28
2019-02-24T21:12:53.613Z,-1.27
2019-02-24T21:15:22.486Z,-1.23
2019-02-24T21:17:51.249Z,-1.24
2019-02-24T21:20:22.417Z,-1.62
2019-02-24T21:22:51.269Z,-1.38
2019-02-24T21:25:20.126Z,-1.35
2019-02-24T21:27:48.893Z,-1.36
2019-02-24T21:30:19.923Z,-1.36
2019-02-24T21:32:48.761Z,-1.36
2019-02-24T21:35:17.675Z,-1.39
2019-02-24T21:37:46.449Z,-1.43
2019-02-24T21:40:19.961Z,-1.40
2019-02-24T21:42:48.819Z,-1.39
2019-02-24T21:45:23.037Z,-1.39
2019-02-24T21:47:51.893Z,-1.36
2019-02-24T21:50:20.696Z,-1.34
2019-02-24T21:52:49.561Z,-1.41
2019-02-24T21:55:18.411Z,-1.44
2019-02-24T21:57:47.194Z,-1.47
2019-02-24T22:00:21.117Z,-1.51
2019-02-24T22:02:49.953Z,-1.48
2019-02-24T22:05:18.942Z,-1.66
2019-02-24T22:07:47.779Z,-1.63
2019-02-24T22:10:17.150Z,-1.67
2019-02-24T22:12:45.942Z,-1.59
2019-02-24T22:15:22.164Z,-1.67
2019-02-24T22:17:51.036Z,-1.61
2019-02-24T22:20:19.891Z,-1.70
2019-02-24T22:22:48.679Z,-1.69
2019-02-24T22:25:17.569Z,-1.68
2019-02-24T22:27:46.419Z,-1.72
2019-02-24T22:30:17.607Z,-1.73
2019-02-24T22:32:46.453Z,-1.74
2019-02-24T22:35:15.251Z,-1.79
2019-02-24T22:37:44.075Z,-1.88
2019-02-24T22:40:16.431Z,-1.91
2019-02-24T22:42:44.909Z,-1.91
2019-02-24T22:45:18.371Z,-1.86
2019-02-24T22:47:47.213Z,-1.82
2019-02-24T22:50:16.973Z,-1.94
2019-02-24T22:52:46.325Z,-1.95
2019-02-24T22:55:16.214Z,-1.94
2019-02-24T22:57:45.097Z,-1.98
2019-02-24T23:00:48.376Z,-2.05
2019-02-24T23:03:17.234Z,-2.08
2019-02-24T23:05:46.070Z,-2.17
2019-02-24T23:08:14.943Z,-2.21
2019-02-24T23:10:43.722Z,-2.29
2019-02-24T23:13:12.489Z,-2.27
2019-02-24T23:15:41.323Z,-2.28
2019-02-24T23:18:10.182Z,-2.31
2019-02-24T23:20:39.096Z,-2.31
2019-02-24T23:23:07.932Z,-2.33
2019-02-24T23:25:36.763Z,-2.37
2019-02-24T23:28:05.632Z,-2.32
2019-02-24T23:30:34.425Z,-2.31
2019-02-24T23:33:03.201Z,-2.34
2019-02-24T23:35:32.060Z,-2.37
2019-02-24T23:38:00.830Z,-2.39
2019-02-24T23:40:29.631Z,-2.38
2019-02-24T23:42:58.411Z,-2.40
2019-02-24T23:45:27.214Z,-2.45
2019-02-24T23:47:56.068Z,-2.61
2019-02-24T23:50:24.937Z,-2.61
2019-02-24T23:52:53.777Z,-2.68
2019-02-24T23:55:22.630Z,-2.70
2019-02-24T23:57:51.483Z,-2.71
